sensor_id;sensor_type;location;lat;lon;timestamp;P1;durP1;ratioP1;P2;durP2;ratioP2
69985;SDS011;57328;52.054;5.294;2023-07-13T00:00:47;10.23;;;2.20;;
69985;SDS011;57328;52.054;5.294;2023-07-13T00:03:14;7.72;;;2.22;;
69985;SDS011;57328;52.054;5.294;2023-07-13T00:05:43;7.13;;;1.83;;
69985;SDS011;57328;52.054;5.294;2023-07-13T00:08:10;8.00;;;1.70;;
69985;SDS011;57328;52.054;5.294;2023-07-13T00:10:41;8.88;;;1.77;;
69985;SDS011;57328;52.054;5.294;2023-07-13T00:13:09;7.18;;;1.98;;
69985;SDS011;57328;52.054;5.294;2023-07-13T00:15:36;6.20;;;1.50;;
69985;SDS011;57328;52.054;5.294;2023-07-13T00:18:03;7.28;;;1.65;;
69985;SDS011;57328;52.054;5.294;2023-07-13T00:20:31;5.88;;;1.90;;
69985;SDS011;57328;52.054;5.294;2023-07-13T00:22:59;9.07;;;1.83;;
69985;SDS011;57328;52.054;5.294;2023-07-13T00:25:26;8.40;;;2.50;;
69985;SDS011;57328;52.054;5.294;2023-07-13T00:27:57;8.68;;;1.80;;
69985;SDS011;57328;52.054;5.294;2023-07-13T00:30:24;10.07;;;2.35;;
69985;SDS011;57328;52.054;5.294;2023-07-13T00:32:52;9.00;;;1.98;;
69985;SDS011;57328;52.054;5.294;2023-07-13T00:35:39;8.88;;;1.92;;
69985;SDS011;57328;52.054;5.294;2023-07-13T00:38:10;7.13;;;1.90;;
69985;SDS011;57328;52.054;5.294;2023-07-13T00:40:38;8.15;;;1.77;;
69985;SDS011;57328;52.054;5.294;2023-07-13T00:43:10;7.40;;;1.95;;
69985;SDS011;57328;52.054;5.294;2023-07-13T00:48:12;7.55;;;1.88;;
69985;SDS011;57328;52.054;5.294;2023-07-13T00:50:40;6.47;;;1.70;;
69985;SDS011;57328;52.054;5.294;2023-07-13T00:53:08;8.50;;;2.03;;
69985;SDS011;57328;52.054;5.294;2023-07-13T00:55:35;12.35;;;2.15;;
69985;SDS011;57328;52.054;5.294;2023-07-13T00:58:03;10.57;;;2.08;;
69985;SDS011;57328;52.054;5.294;2023-07-13T01:00:31;8.18;;;1.60;;
69985;SDS011;57328;52.054;5.294;2023-07-13T01:02:58;7.88;;;2.00;;
69985;SDS011;57328;52.054;5.294;2023-07-13T01:05:26;9.07;;;2.10;;
69985;SDS011;57328;52.054;5.294;2023-07-13T01:07:53;10.82;;;2.20;;
69985;SDS011;57328;52.054;5.294;2023-07-13T01:12:49;10.70;;;1.95;;
69985;SDS011;57328;52.054;5.294;2023-07-13T01:18:02;7.68;;;2.08;;
69985;SDS011;57328;52.054;5.294;2023-07-13T01:20:30;8.43;;;2.15;;
69985;SDS011;57328;52.054;5.294;2023-07-13T01:22:59;11.80;;;2.47;;
69985;SDS011;57328;52.054;5.294;2023-07-13T01:25:26;6.95;;;1.88;;
69985;SDS011;57328;52.054;5.294;2023-07-13T01:27:54;8.35;;;1.83;;
69985;SDS011;57328;52.054;5.294;2023-07-13T01:30:22;9.50;;;1.88;;
69985;SDS011;57328;52.054;5.294;2023-07-13T01:32:49;12.10;;;2.10;;
69985;SDS011;57328;52.054;5.294;2023-07-13T01:35:17;8.48;;;1.70;;
69985;SDS011;57328;52.054;5.294;2023-07-13T01:37:44;10.52;;;2.60;;
69985;SDS011;57328;52.054;5.294;2023-07-13T01:40:11;9.85;;;2.55;;
69985;SDS011;57328;52.054;5.294;2023-07-13T01:42:39;8.98;;;2.08;;
69985;SDS011;57328;52.054;5.294;2023-07-13T01:45:06;10.65;;;1.90;;
69985;SDS011;57328;52.054;5.294;2023-07-13T01:47:33;11.05;;;2.42;;
69985;SDS011;57328;52.054;5.294;2023-07-13T01:50:01;8.15;;;1.95;;
69985;SDS011;57328;52.054;5.294;2023-07-13T01:52:28;8.40;;;2.00;;
69985;SDS011;57328;52.054;5.294;2023-07-13T01:54:55;8.75;;;2.42;;
69985;SDS011;57328;52.054;5.294;2023-07-13T01:57:22;6.03;;;1.80;;
69985;SDS011;57328;52.054;5.294;2023-07-13T01:59:50;10.98;;;2.53;;
69985;SDS011;57328;52.054;5.294;2023-07-13T02:02:17;9.55;;;2.90;;
69985;SDS011;57328;52.054;5.294;2023-07-13T02:04:44;9.27;;;2.25;;
69985;SDS011;57328;52.054;5.294;2023-07-13T02:07:12;7.78;;;2.60;;
69985;SDS011;57328;52.054;5.294;2023-07-13T02:09:39;9.45;;;2.30;;
69985;SDS011;57328;52.054;5.294;2023-07-13T02:12:06;8.15;;;2.03;;
69985;SDS011;57328;52.054;5.294;2023-07-13T02:14:34;11.15;;;2.63;;
69985;SDS011;57328;52.054;5.294;2023-07-13T02:17:01;7.30;;;2.03;;
69985;SDS011;57328;52.054;5.294;2023-07-13T02:19:29;9.65;;;2.35;;
69985;SDS011;57328;52.054;5.294;2023-07-13T02:21:56;9.90;;;2.40;;
69985;SDS011;57328;52.054;5.294;2023-07-13T02:24:24;9.45;;;2.40;;
69985;SDS011;57328;52.054;5.294;2023-07-13T02:26:51;9.02;;;2.33;;
69985;SDS011;57328;52.054;5.294;2023-07-13T02:29:18;12.25;;;2.45;;
69985;SDS011;57328;52.054;5.294;2023-07-13T02:31:45;14.00;;;3.05;;
69985;SDS011;57328;52.054;5.294;2023-07-13T02:34:13;9.00;;;2.50;;
69985;SDS011;57328;52.054;5.294;2023-07-13T02:36:42;10.63;;;2.53;;
69985;SDS011;57328;52.054;5.294;2023-07-13T02:39:09;11.45;;;2.50;;
69985;SDS011;57328;52.054;5.294;2023-07-13T02:41:38;11.82;;;2.80;;
69985;SDS011;57328;52.054;5.294;2023-07-13T02:44:05;9.63;;;2.63;;
69985;SDS011;57328;52.054;5.294;2023-07-13T02:46:35;9.80;;;2.28;;
69985;SDS011;57328;52.054;5.294;2023-07-13T02:49:03;8.13;;;2.33;;
69985;SDS011;57328;52.054;5.294;2023-07-13T02:51:30;10.77;;;2.67;;
69985;SDS011;57328;52.054;5.294;2023-07-13T02:54:01;9.60;;;2.50;;
69985;SDS011;57328;52.054;5.294;2023-07-13T02:56:29;12.80;;;2.60;;
69985;SDS011;57328;52.054;5.294;2023-07-13T02:58:57;14.35;;;2.95;;
69985;SDS011;57328;52.054;5.294;2023-07-13T03:01:25;10.48;;;2.67;;
69985;SDS011;57328;52.054;5.294;2023-07-13T03:03:52;9.68;;;2.72;;
69985;SDS011;57328;52.054;5.294;2023-07-13T03:06:20;11.45;;;3.00;;
69985;SDS011;57328;52.054;5.294;2023-07-13T03:08:47;10.75;;;2.60;;
69985;SDS011;57328;52.054;5.294;2023-07-13T03:11:18;10.05;;;2.95;;
69985;SDS011;57328;52.054;5.294;2023-07-13T03:13:46;13.48;;;3.22;;
69985;SDS011;57328;52.054;5.294;2023-07-13T03:16:15;14.23;;;2.95;;
69985;SDS011;57328;52.054;5.294;2023-07-13T03:18:45;14.82;;;2.90;;
69985;SDS011;57328;52.054;5.294;2023-07-13T03:21:13;11.13;;;3.17;;
69985;SDS011;57328;52.054;5.294;2023-07-13T03:23:41;12.93;;;3.30;;
69985;SDS011;57328;52.054;5.294;2023-07-13T03:26:15;12.00;;;3.25;;
69985;SDS011;57328;52.054;5.294;2023-07-13T03:28:43;14.07;;;3.25;;
69985;SDS011;57328;52.054;5.294;2023-07-13T03:31:20;13.73;;;3.30;;
69985;SDS011;57328;52.054;5.294;2023-07-13T03:33:48;14.50;;;3.33;;
69985;SDS011;57328;52.054;5.294;2023-07-13T03:36:17;13.70;;;4.13;;
69985;SDS011;57328;52.054;5.294;2023-07-13T03:38:49;10.30;;;2.90;;
69985;SDS011;57328;52.054;5.294;2023-07-13T03:41:17;14.73;;;3.20;;
69985;SDS011;57328;52.054;5.294;2023-07-13T03:43:44;12.40;;;3.70;;
69985;SDS011;57328;52.054;5.294;2023-07-13T03:46:11;12.55;;;3.20;;
69985;SDS011;57328;52.054;5.294;2023-07-13T03:48:40;11.38;;;3.42;;
69985;SDS011;57328;52.054;5.294;2023-07-13T03:51:09;11.90;;;3.40;;
69985;SDS011;57328;52.054;5.294;2023-07-13T03:53:40;12.75;;;3.67;;
69985;SDS011;57328;52.054;5.294;2023-07-13T03:56:08;12.60;;;3.10;;
69985;SDS011;57328;52.054;5.294;2023-07-13T03:58:37;13.25;;;3.25;;
69985;SDS011;57328;52.054;5.294;2023-07-13T04:01:05;13.48;;;3.30;;
69985;SDS011;57328;52.054;5.294;2023-07-13T04:03:33;11.65;;;4.15;;
69985;SDS011;57328;52.054;5.294;2023-07-13T04:06:01;14.55;;;3.20;;
69985;SDS011;57328;52.054;5.294;2023-07-13T04:10:57;15.63;;;3.67;;
69985;SDS011;57328;52.054;5.294;2023-07-13T04:13:24;16.42;;;3.47;;
69985;SDS011;57328;52.054;5.294;2023-07-13T04:15:52;12.93;;;3.72;;
69985;SDS011;57328;52.054;5.294;2023-07-13T04:18:19;12.40;;;3.50;;
69985;SDS011;57328;52.054;5.294;2023-07-13T04:20:47;12.50;;;3.65;;
69985;SDS011;57328;52.054;5.294;2023-07-13T04:23:16;15.98;;;3.75;;
69985;SDS011;57328;52.054;5.294;2023-07-13T04:25:44;16.95;;;4.00;;
69985;SDS011;57328;52.054;5.294;2023-07-13T04:28:11;14.35;;;4.05;;
69985;SDS011;57328;52.054;5.294;2023-07-13T04:30:39;13.75;;;3.80;;
69985;SDS011;57328;52.054;5.294;2023-07-13T04:33:06;15.23;;;3.90;;
69985;SDS011;57328;52.054;5.294;2023-07-13T04:38:01;13.05;;;3.47;;
69985;SDS011;57328;52.054;5.294;2023-07-13T04:40:29;16.33;;;3.63;;
69985;SDS011;57328;52.054;5.294;2023-07-13T04:42:56;14.23;;;3.20;;
69985;SDS011;57328;52.054;5.294;2023-07-13T04:45:24;16.30;;;4.20;;
69985;SDS011;57328;52.054;5.294;2023-07-13T04:47:51;17.40;;;3.83;;
69985;SDS011;57328;52.054;5.294;2023-07-13T04:50:19;18.25;;;3.80;;
69985;SDS011;57328;52.054;5.294;2023-07-13T04:52:52;14.23;;;3.90;;
69985;SDS011;57328;52.054;5.294;2023-07-13T04:55:20;14.25;;;3.97;;
69985;SDS011;57328;52.054;5.294;2023-07-13T04:57:47;11.02;;;3.95;;
69985;SDS011;57328;52.054;5.294;2023-07-13T05:00:14;13.60;;;3.72;;
69985;SDS011;57328;52.054;5.294;2023-07-13T05:02:43;16.98;;;4.45;;
69985;SDS011;57328;52.054;5.294;2023-07-13T05:05:12;13.90;;;3.95;;
69985;SDS011;57328;52.054;5.294;2023-07-13T05:07:39;13.95;;;4.00;;
69985;SDS011;57328;52.054;5.294;2023-07-13T05:10:07;14.85;;;4.13;;
69985;SDS011;57328;52.054;5.294;2023-07-13T05:12:34;16.67;;;4.13;;
69985;SDS011;57328;52.054;5.294;2023-07-13T05:15:02;15.43;;;3.60;;
69985;SDS011;57328;52.054;5.294;2023-07-13T05:17:29;11.60;;;3.50;;
69985;SDS011;57328;52.054;5.294;2023-07-13T05:19:57;15.15;;;4.18;;
69985;SDS011;57328;52.054;5.294;2023-07-13T05:22:24;15.77;;;4.15;;
69985;SDS011;57328;52.054;5.294;2023-07-13T05:24:51;14.65;;;4.35;;
69985;SDS011;57328;52.054;5.294;2023-07-13T05:27:19;15.68;;;4.32;;
69985;SDS011;57328;52.054;5.294;2023-07-13T05:29:46;13.32;;;4.78;;
69985;SDS011;57328;52.054;5.294;2023-07-13T05:32:13;20.75;;;4.80;;
69985;SDS011;57328;52.054;5.294;2023-07-13T05:34:42;21.73;;;6.03;;
69985;SDS011;57328;52.054;5.294;2023-07-13T05:37:09;17.58;;;5.55;;
69985;SDS011;57328;52.054;5.294;2023-07-13T05:39:36;15.68;;;4.93;;
69985;SDS011;57328;52.054;5.294;2023-07-13T05:42:04;17.27;;;4.75;;
69985;SDS011;57328;52.054;5.294;2023-07-13T05:44:32;17.92;;;4.60;;
69985;SDS011;57328;52.054;5.294;2023-07-13T05:46:59;19.27;;;4.80;;
69985;SDS011;57328;52.054;5.294;2023-07-13T05:49:26;18.55;;;5.15;;
69985;SDS011;57328;52.054;5.294;2023-07-13T05:51:54;19.92;;;4.93;;
69985;SDS011;57328;52.054;5.294;2023-07-13T05:54:21;18.75;;;5.22;;
69985;SDS011;57328;52.054;5.294;2023-07-13T05:56:48;15.52;;;5.05;;
69985;SDS011;57328;52.054;5.294;2023-07-13T05:59:15;19.48;;;5.60;;
69985;SDS011;57328;52.054;5.294;2023-07-13T06:04:11;17.95;;;5.72;;
69985;SDS011;57328;52.054;5.294;2023-07-13T06:06:38;20.00;;;6.05;;
69985;SDS011;57328;52.054;5.294;2023-07-13T06:09:06;19.48;;;5.93;;
69985;SDS011;57328;52.054;5.294;2023-07-13T06:11:33;18.30;;;6.30;;
69985;SDS011;57328;52.054;5.294;2023-07-13T06:14:01;17.50;;;6.05;;
69985;SDS011;57328;52.054;5.294;2023-07-13T06:16:30;16.73;;;6.07;;
69985;SDS011;57328;52.054;5.294;2023-07-13T06:18:57;20.60;;;6.47;;
69985;SDS011;57328;52.054;5.294;2023-07-13T06:21:24;17.05;;;6.13;;
69985;SDS011;57328;52.054;5.294;2023-07-13T06:23:52;24.67;;;6.47;;
69985;SDS011;57328;52.054;5.294;2023-07-13T06:26:20;17.15;;;6.43;;
69985;SDS011;57328;52.054;5.294;2023-07-13T06:28:48;25.42;;;6.75;;
69985;SDS011;57328;52.054;5.294;2023-07-13T06:31:16;23.38;;;7.78;;
69985;SDS011;57328;52.054;5.294;2023-07-13T06:33:43;22.67;;;7.80;;
69985;SDS011;57328;52.054;5.294;2023-07-13T06:36:11;17.85;;;7.07;;
69985;SDS011;57328;52.054;5.294;2023-07-13T06:38:38;21.70;;;8.00;;
69985;SDS011;57328;52.054;5.294;2023-07-13T06:41:06;21.10;;;7.95;;
69985;SDS011;57328;52.054;5.294;2023-07-13T06:43:34;18.67;;;8.15;;
69985;SDS011;57328;52.054;5.294;2023-07-13T06:46:01;23.42;;;8.13;;
69985;SDS011;57328;52.054;5.294;2023-07-13T06:48:28;24.52;;;8.25;;
69985;SDS011;57328;52.054;5.294;2023-07-13T06:50:56;20.55;;;8.05;;
69985;SDS011;57328;52.054;5.294;2023-07-13T06:53:23;21.52;;;7.95;;
69985;SDS011;57328;52.054;5.294;2023-07-13T06:55:50;24.08;;;7.72;;
69985;SDS011;57328;52.054;5.294;2023-07-13T06:58:18;22.08;;;8.88;;
69985;SDS011;57328;52.054;5.294;2023-07-13T07:00:45;20.40;;;8.63;;
69985;SDS011;57328;52.054;5.294;2023-07-13T07:03:13;21.25;;;7.47;;
69985;SDS011;57328;52.054;5.294;2023-07-13T07:05:40;16.33;;;7.53;;
69985;SDS011;57328;52.054;5.294;2023-07-13T07:08:08;21.23;;;7.97;;
69985;SDS011;57328;52.054;5.294;2023-07-13T07:10:35;20.33;;;7.65;;
69985;SDS011;57328;52.054;5.294;2023-07-13T07:13:03;21.98;;;7.72;;
69985;SDS011;57328;52.054;5.294;2023-07-13T07:15:31;17.65;;;7.88;;
69985;SDS011;57328;52.054;5.294;2023-07-13T07:18:00;20.33;;;7.55;;
69985;SDS011;57328;52.054;5.294;2023-07-13T07:20:27;19.58;;;7.05;;
69985;SDS011;57328;52.054;5.294;2023-07-13T07:22:56;20.77;;;8.00;;
69985;SDS011;57328;52.054;5.294;2023-07-13T07:25:24;18.73;;;7.28;;
69985;SDS011;57328;52.054;5.294;2023-07-13T07:27:51;15.05;;;7.28;;
69985;SDS011;57328;52.054;5.294;2023-07-13T07:30:21;19.40;;;7.55;;
69985;SDS011;57328;52.054;5.294;2023-07-13T07:32:52;22.08;;;8.55;;
69985;SDS011;57328;52.054;5.294;2023-07-13T07:35:22;25.98;;;8.50;;
69985;SDS011;57328;52.054;5.294;2023-07-13T07:37:49;18.05;;;8.18;;
69985;SDS011;57328;52.054;5.294;2023-07-13T07:40:17;18.98;;;8.15;;
69985;SDS011;57328;52.054;5.294;2023-07-13T07:42:47;19.60;;;7.80;;
69985;SDS011;57328;52.054;5.294;2023-07-13T07:45:15;17.55;;;8.00;;
69985;SDS011;57328;52.054;5.294;2023-07-13T07:47:42;18.00;;;8.13;;
69985;SDS011;57328;52.054;5.294;2023-07-13T07:50:09;17.17;;;8.50;;
69985;SDS011;57328;52.054;5.294;2023-07-13T07:52:37;15.48;;;8.20;;
69985;SDS011;57328;52.054;5.294;2023-07-13T07:55:04;16.38;;;7.75;;
69985;SDS011;57328;52.054;5.294;2023-07-13T07:57:35;20.70;;;7.82;;
69985;SDS011;57328;52.054;5.294;2023-07-13T08:00:06;17.85;;;7.57;;
69985;SDS011;57328;52.054;5.294;2023-07-13T08:02:36;19.00;;;8.30;;
69985;SDS011;57328;52.054;5.294;2023-07-13T08:05:10;13.77;;;6.60;;
69985;SDS011;57328;52.054;5.294;2023-07-13T08:07:40;15.80;;;7.07;;
69985;SDS011;57328;52.054;5.294;2023-07-13T08:10:07;16.08;;;6.72;;
69985;SDS011;57328;52.054;5.294;2023-07-13T08:12:38;21.02;;;7.68;;
69985;SDS011;57328;52.054;5.294;2023-07-13T08:15:09;18.92;;;7.00;;
69985;SDS011;57328;52.054;5.294;2023-07-13T08:17:37;14.27;;;5.68;;
69985;SDS011;57328;52.054;5.294;2023-07-13T08:20:05;13.27;;;4.72;;
69985;SDS011;57328;52.054;5.294;2023-07-13T08:22:32;9.88;;;4.65;;
69985;SDS011;57328;52.054;5.294;2023-07-13T08:24:59;13.63;;;4.70;;
69985;SDS011;57328;52.054;5.294;2023-07-13T08:27:27;10.10;;;3.78;;
69985;SDS011;57328;52.054;5.294;2023-07-13T08:32:22;9.10;;;3.10;;
69985;SDS011;57328;52.054;5.294;2023-07-13T08:34:50;9.27;;;2.63;;
69985;SDS011;57328;52.054;5.294;2023-07-13T08:37:17;9.77;;;2.50;;
69985;SDS011;57328;52.054;5.294;2023-07-13T08:39:45;7.40;;;2.33;;
69985;SDS011;57328;52.054;5.294;2023-07-13T08:45:00;8.60;;;3.28;;
69985;SDS011;57328;52.054;5.294;2023-07-13T08:47:32;9.82;;;3.70;;
69985;SDS011;57328;52.054;5.294;2023-07-13T08:50:01;9.00;;;3.50;;
69985;SDS011;57328;52.054;5.294;2023-07-13T08:52:36;12.50;;;3.90;;
69985;SDS011;57328;52.054;5.294;2023-07-13T08:55:08;7.80;;;3.35;;
69985;SDS011;57328;52.054;5.294;2023-07-13T08:57:38;9.95;;;3.47;;
69985;SDS011;57328;52.054;5.294;2023-07-13T09:00:11;9.30;;;3.17;;
69985;SDS011;57328;52.054;5.294;2023-07-13T09:02:52;8.15;;;3.33;;
69985;SDS011;57328;52.054;5.294;2023-07-13T09:05:32;8.20;;;2.60;;
69985;SDS011;57328;52.054;5.294;2023-07-13T09:10:49;8.60;;;2.50;;
69985;SDS011;57328;52.054;5.294;2023-07-13T09:15:55;9.00;;;2.45;;
69985;SDS011;57328;52.054;5.294;2023-07-13T09:18:36;7.78;;;2.10;;
69985;SDS011;57328;52.054;5.294;2023-07-13T09:23:31;7.47;;;2.45;;
69985;SDS011;57328;52.054;5.294;2023-07-13T09:26:06;9.38;;;3.05;;
69985;SDS011;57328;52.054;5.294;2023-07-13T09:28:44;8.13;;;2.60;;
69985;SDS011;57328;52.054;5.294;2023-07-13T09:33:43;7.68;;;2.55;;
69985;SDS011;57328;52.054;5.294;2023-07-13T09:36:33;7.57;;;2.25;;
69985;SDS011;57328;52.054;5.294;2023-07-13T09:44:31;5.18;;;2.20;;
69985;SDS011;57328;52.054;5.294;2023-07-13T09:46:58;7.68;;;2.38;;
69985;SDS011;57328;52.054;5.294;2023-07-13T09:49:27;9.20;;;2.50;;
69985;SDS011;57328;52.054;5.294;2023-07-13T09:51:59;7.57;;;2.38;;
69985;SDS011;57328;52.054;5.294;2023-07-13T09:54:27;4.07;;;1.75;;
69985;SDS011;57328;52.054;5.294;2023-07-13T09:56:58;10.80;;;2.10;;
69985;SDS011;57328;52.054;5.294;2023-07-13T09:59:29;7.53;;;2.30;;
69985;SDS011;57328;52.054;5.294;2023-07-13T10:01:57;8.45;;;2.13;;
69985;SDS011;57328;52.054;5.294;2023-07-13T10:04:30;8.95;;;2.97;;
69985;SDS011;57328;52.054;5.294;2023-07-13T10:07:05;7.53;;;2.28;;
69985;SDS011;57328;52.054;5.294;2023-07-13T10:09:54;6.50;;;2.50;;
69985;SDS011;57328;52.054;5.294;2023-07-13T10:14:55;6.70;;;2.80;;
69985;SDS011;57328;52.054;5.294;2023-07-13T10:17:48;8.23;;;2.67;;
69985;SDS011;57328;52.054;5.294;2023-07-13T10:20:16;7.43;;;2.90;;
69985;SDS011;57328;52.054;5.294;2023-07-13T10:23:00;6.15;;;2.22;;
69985;SDS011;57328;52.054;5.294;2023-07-13T10:25:36;4.95;;;2.13;;
69985;SDS011;57328;52.054;5.294;2023-07-13T10:28:11;7.63;;;2.60;;
69985;SDS011;57328;52.054;5.294;2023-07-13T10:30:43;4.80;;;1.85;;
69985;SDS011;57328;52.054;5.294;2023-07-13T10:33:13;4.25;;;1.60;;
69985;SDS011;57328;52.054;5.294;2023-07-13T10:35:41;4.60;;;1.52;;
69985;SDS011;57328;52.054;5.294;2023-07-13T10:38:13;3.75;;;1.60;;
69985;SDS011;57328;52.054;5.294;2023-07-13T10:40:56;4.35;;;1.70;;
69985;SDS011;57328;52.054;5.294;2023-07-13T10:43:35;5.28;;;1.85;;
69985;SDS011;57328;52.054;5.294;2023-07-13T10:46:03;4.20;;;1.80;;
69985;SDS011;57328;52.054;5.294;2023-07-13T10:48:31;6.15;;;2.08;;
69985;SDS011;57328;52.054;5.294;2023-07-13T10:51:00;4.75;;;1.70;;
69985;SDS011;57328;52.054;5.294;2023-07-13T10:53:29;4.68;;;1.83;;
69985;SDS011;57328;52.054;5.294;2023-07-13T10:56:19;3.55;;;1.60;;
69985;SDS011;57328;52.054;5.294;2023-07-13T10:58:44;4.75;;;1.52;;
69985;SDS011;57328;52.054;5.294;2023-07-13T11:01:16;6.15;;;2.08;;
69985;SDS011;57328;52.054;5.294;2023-07-13T11:03:50;5.55;;;2.22;;
69985;SDS011;57328;52.054;5.294;2023-07-13T11:08:52;3.83;;;1.88;;
69985;SDS011;57328;52.054;5.294;2023-07-13T11:13:57;7.43;;;2.15;;
69985;SDS011;57328;52.054;5.294;2023-07-13T11:16:38;5.28;;;2.00;;
69985;SDS011;57328;52.054;5.294;2023-07-13T11:24:28;5.50;;;1.70;;
69985;SDS011;57328;52.054;5.294;2023-07-13T11:26:57;6.18;;;1.95;;
69985;SDS011;57328;52.054;5.294;2023-07-13T11:31:55;5.10;;;2.25;;
69985;SDS011;57328;52.054;5.294;2023-07-13T11:34:27;5.57;;;2.08;;
69985;SDS011;57328;52.054;5.294;2023-07-13T11:36:55;5.75;;;1.90;;
69985;SDS011;57328;52.054;5.294;2023-07-13T11:39:36;5.00;;;1.80;;
69985;SDS011;57328;52.054;5.294;2023-07-13T11:42:13;7.20;;;2.00;;
69985;SDS011;57328;52.054;5.294;2023-07-13T11:44:42;9.05;;;2.67;;
69985;SDS011;57328;52.054;5.294;2023-07-13T11:47:29;6.95;;;2.38;;
69985;SDS011;57328;52.054;5.294;2023-07-13T11:49:57;8.15;;;2.17;;
69985;SDS011;57328;52.054;5.294;2023-07-13T11:52:28;7.15;;;2.60;;
69985;SDS011;57328;52.054;5.294;2023-07-13T11:54:56;6.25;;;2.40;;
69985;SDS011;57328;52.054;5.294;2023-07-13T11:59:57;5.63;;;2.40;;
69985;SDS011;57328;52.054;5.294;2023-07-13T12:02:29;6.70;;;2.17;;
69985;SDS011;57328;52.054;5.294;2023-07-13T12:04:58;6.78;;;2.30;;
69985;SDS011;57328;52.054;5.294;2023-07-13T12:10:00;7.13;;;2.08;;
69985;SDS011;57328;52.054;5.294;2023-07-13T12:12:28;5.20;;;2.03;;
69985;SDS011;57328;52.054;5.294;2023-07-13T12:14:55;5.68;;;2.10;;
69985;SDS011;57328;52.054;5.294;2023-07-13T12:17:24;6.25;;;1.73;;
69985;SDS011;57328;52.054;5.294;2023-07-13T12:19:53;6.50;;;2.00;;
69985;SDS011;57328;52.054;5.294;2023-07-13T12:22:20;4.68;;;2.05;;
69985;SDS011;57328;52.054;5.294;2023-07-13T12:24:49;5.90;;;1.80;;
69985;SDS011;57328;52.054;5.294;2023-07-13T12:27:27;9.77;;;2.20;;
69985;SDS011;57328;52.054;5.294;2023-07-13T12:29:59;5.40;;;2.13;;
69985;SDS011;57328;52.054;5.294;2023-07-13T12:32:26;6.25;;;2.00;;
69985;SDS011;57328;52.054;5.294;2023-07-13T12:34:56;5.43;;;1.80;;
69985;SDS011;57328;52.054;5.294;2023-07-13T12:37:23;7.57;;;2.25;;
69985;SDS011;57328;52.054;5.294;2023-07-13T12:39:51;9.02;;;2.10;;
69985;SDS011;57328;52.054;5.294;2023-07-13T12:42:26;5.15;;;2.30;;
69985;SDS011;57328;52.054;5.294;2023-07-13T12:44:56;3.83;;;1.85;;
69985;SDS011;57328;52.054;5.294;2023-07-13T12:47:24;6.57;;;1.90;;
69985;SDS011;57328;52.054;5.294;2023-07-13T12:49:56;5.65;;;2.10;;
69985;SDS011;57328;52.054;5.294;2023-07-13T12:52:27;4.88;;;1.60;;
69985;SDS011;57328;52.054;5.294;2023-07-13T12:54:58;5.43;;;1.83;;
69985;SDS011;57328;52.054;5.294;2023-07-13T12:57:32;5.18;;;2.00;;
69985;SDS011;57328;52.054;5.294;2023-07-13T13:00:00;5.30;;;1.92;;
69985;SDS011;57328;52.054;5.294;2023-07-13T13:02:32;4.38;;;1.73;;
69985;SDS011;57328;52.054;5.294;2023-07-13T13:05:03;3.30;;;1.70;;
69985;SDS011;57328;52.054;5.294;2023-07-13T13:07:32;4.30;;;1.77;;
69985;SDS011;57328;52.054;5.294;2023-07-13T13:10:00;3.25;;;1.30;;
69985;SDS011;57328;52.054;5.294;2023-07-13T13:12:27;4.55;;;1.75;;
69985;SDS011;57328;52.054;5.294;2023-07-13T13:14:55;3.90;;;1.58;;
69985;SDS011;57328;52.054;5.294;2023-07-13T13:17:23;5.30;;;1.90;;
69985;SDS011;57328;52.054;5.294;2023-07-13T13:19:55;7.22;;;2.05;;
69985;SDS011;57328;52.054;5.294;2023-07-13T13:22:23;7.10;;;2.47;;
69985;SDS011;57328;52.054;5.294;2023-07-13T13:24:50;6.78;;;2.58;;
69985;SDS011;57328;52.054;5.294;2023-07-13T13:27:18;6.63;;;2.80;;
69985;SDS011;57328;52.054;5.294;2023-07-13T13:29:47;5.35;;;2.47;;
69985;SDS011;57328;52.054;5.294;2023-07-13T13:32:16;11.00;;;3.28;;
69985;SDS011;57328;52.054;5.294;2023-07-13T13:34:45;7.97;;;3.00;;
69985;SDS011;57328;52.054;5.294;2023-07-13T13:37:21;4.00;;;1.75;;
69985;SDS011;57328;52.054;5.294;2023-07-13T13:39:49;5.70;;;2.10;;
69985;SDS011;57328;52.054;5.294;2023-07-13T13:42:33;5.65;;;2.10;;
69985;SDS011;57328;52.054;5.294;2023-07-13T13:45:01;4.80;;;1.80;;
69985;SDS011;57328;52.054;5.294;2023-07-13T13:49:56;4.03;;;2.00;;
69985;SDS011;57328;52.054;5.294;2023-07-13T13:52:23;5.07;;;2.08;;
69985;SDS011;57328;52.054;5.294;2023-07-13T13:54:51;4.95;;;2.00;;
69985;SDS011;57328;52.054;5.294;2023-07-13T13:57:23;4.57;;;2.00;;
69985;SDS011;57328;52.054;5.294;2023-07-13T13:59:55;5.53;;;2.28;;
69985;SDS011;57328;52.054;5.294;2023-07-13T14:02:24;5.90;;;2.25;;
69985;SDS011;57328;52.054;5.294;2023-07-13T14:04:56;5.53;;;1.92;;
69985;SDS011;57328;52.054;5.294;2023-07-13T14:07:24;4.93;;;1.83;;
69985;SDS011;57328;52.054;5.294;2023-07-13T14:12:19;5.80;;;2.13;;
69985;SDS011;57328;52.054;5.294;2023-07-13T14:14:47;7.93;;;2.25;;
69985;SDS011;57328;52.054;5.294;2023-07-13T14:17:25;4.72;;;2.13;;
69985;SDS011;57328;52.054;5.294;2023-07-13T14:19:54;5.15;;;2.42;;
69985;SDS011;57328;52.054;5.294;2023-07-13T14:22:26;5.85;;;2.00;;
69985;SDS011;57328;52.054;5.294;2023-07-13T14:24:54;6.07;;;1.60;;
69985;SDS011;57328;52.054;5.294;2023-07-13T14:27:21;4.25;;;1.75;;
69985;SDS011;57328;52.054;5.294;2023-07-13T14:29:49;6.05;;;1.85;;
69985;SDS011;57328;52.054;5.294;2023-07-13T14:32:16;5.10;;;1.73;;
69985;SDS011;57328;52.054;5.294;2023-07-13T14:34:47;5.28;;;1.70;;
69985;SDS011;57328;52.054;5.294;2023-07-13T14:37:14;5.10;;;1.73;;
69985;SDS011;57328;52.054;5.294;2023-07-13T14:39:43;3.65;;;1.15;;
69985;SDS011;57328;52.054;5.294;2023-07-13T14:42:11;6.82;;;1.80;;
69985;SDS011;57328;52.054;5.294;2023-07-13T14:44:38;8.02;;;1.88;;
69985;SDS011;57328;52.054;5.294;2023-07-13T14:47:07;5.07;;;1.88;;
69985;SDS011;57328;52.054;5.294;2023-07-13T14:52:12;6.07;;;1.90;;
69985;SDS011;57328;52.054;5.294;2023-07-13T14:54:40;8.32;;;2.00;;
69985;SDS011;57328;52.054;5.294;2023-07-13T14:57:10;5.55;;;1.70;;
69985;SDS011;57328;52.054;5.294;2023-07-13T14:59:38;2.92;;;1.63;;
69985;SDS011;57328;52.054;5.294;2023-07-13T15:04:51;5.15;;;1.60;;
69985;SDS011;57328;52.054;5.294;2023-07-13T15:07:18;7.03;;;1.80;;
69985;SDS011;57328;52.054;5.294;2023-07-13T15:09:47;4.07;;;1.50;;
69985;SDS011;57328;52.054;5.294;2023-07-13T15:12:14;3.78;;;1.50;;
69985;SDS011;57328;52.054;5.294;2023-07-13T15:14:41;3.63;;;1.58;;
69985;SDS011;57328;52.054;5.294;2023-07-13T15:20:14;5.78;;;1.98;;
69985;SDS011;57328;52.054;5.294;2023-07-13T15:22:42;4.15;;;1.50;;
69985;SDS011;57328;52.054;5.294;2023-07-13T15:25:20;4.68;;;1.65;;
69985;SDS011;57328;52.054;5.294;2023-07-13T15:27:47;3.92;;;1.42;;
69985;SDS011;57328;52.054;5.294;2023-07-13T15:30:17;6.45;;;1.70;;
69985;SDS011;57328;52.054;5.294;2023-07-13T15:32:45;4.40;;;1.70;;
69985;SDS011;57328;52.054;5.294;2023-07-13T15:35:15;5.90;;;1.50;;
69985;SDS011;57328;52.054;5.294;2023-07-13T15:37:42;3.97;;;1.67;;
69985;SDS011;57328;52.054;5.294;2023-07-13T15:40:10;6.78;;;1.80;;
69985;SDS011;57328;52.054;5.294;2023-07-13T15:42:39;5.25;;;1.75;;
69985;SDS011;57328;52.054;5.294;2023-07-13T15:45:17;3.75;;;1.30;;
69985;SDS011;57328;52.054;5.294;2023-07-13T15:47:45;4.50;;;1.67;;
69985;SDS011;57328;52.054;5.294;2023-07-13T15:50:13;5.68;;;1.67;;
69985;SDS011;57328;52.054;5.294;2023-07-13T15:52:41;5.47;;;1.58;;
69985;SDS011;57328;52.054;5.294;2023-07-13T15:55:12;4.95;;;1.70;;
69985;SDS011;57328;52.054;5.294;2023-07-13T15:57:45;4.60;;;1.50;;
69985;SDS011;57328;52.054;5.294;2023-07-13T16:00:23;2.20;;;1.40;;
69985;SDS011;57328;52.054;5.294;2023-07-13T16:02:51;3.67;;;1.50;;
69985;SDS011;57328;52.054;5.294;2023-07-13T16:05:19;6.05;;;1.80;;